createdAt,value
2017-12-14T15:09:04.815Z,58
2017-12-14T15:10:05.517Z,50
2017-12-14T15:11:06.221Z,54
2017-12-14T15:12:06.924Z,54
2017-12-14T15:13:07.627Z,54
2017-12-14T15:14:08.334Z,53
2017-12-14T15:15:09.033Z,50
2017-12-14T15:16:09.751Z,52
2017-12-14T15:17:10.457Z,51
2017-12-14T15:18:11.172Z,52
2017-12-14T15:19:11.874Z,55
2017-12-14T15:20:12.576Z,60
2017-12-14T15:21:13.294Z,65
2017-12-14T15:22:14.011Z,61
2017-12-14T15:23:14.716Z,56
2017-12-14T15:24:15.419Z,64
2017-12-14T15:25:16.126Z,56
2017-12-14T15:26:16.830Z,56
2017-12-14T15:27:17.534Z,61
2017-12-14T15:28:18.239Z,67
2017-12-14T15:29:18.955Z,66
2017-12-14T15:30:19.658Z,64
2017-12-14T15:31:20.373Z,65
2017-12-14T15:32:21.078Z,64
2017-12-14T15:33:21.781Z,68
2017-12-14T15:34:22.484Z,68
2017-12-14T15:35:23.186Z,69
2017-12-14T15:36:23.889Z,67
2017-12-14T15:37:24.607Z,65
2017-12-14T15:38:25.312Z,61
2017-12-14T15:39:26.013Z,62
2017-12-14T15:40:26.715Z,64
2017-12-14T15:41:27.434Z,65
2017-12-14T15:42:28.137Z,65
2017-12-14T15:43:28.839Z,61
2017-12-14T15:44:29.542Z,63
2017-12-14T15:45:30.243Z,69
2017-12-14T15:46:30.947Z,68
2017-12-14T15:47:31.650Z,60
2017-12-14T15:48:32.368Z,64
2017-12-14T15:49:33.071Z,63
2017-12-14T15:50:33.776Z,63
2017-12-14T15:51:34.478Z,64
2017-12-14T15:52:35.185Z,62
2017-12-14T15:53:35.892Z,65
2017-12-14T15:54:36.592Z,70
2017-12-14T15:55:37.295Z,68
2017-12-14T15:56:37.996Z,67
2017-12-14T15:57:38.700Z,66
2017-12-14T15:58:39.400Z,60
2017-12-14T15:59:40.104Z,66
2017-12-14T16:00:40.805Z,67
2017-12-14T16:01:41.521Z,71
2017-12-14T16:02:42.237Z,68
2017-12-14T16:03:42.939Z,65
2017-12-14T16:04:43.655Z,66
2017-12-14T16:05:44.356Z,68
2017-12-14T16:06:45.070Z,72
2017-12-14T18:46:22.437Z,69
2017-12-14T18:47:23.144Z,69
2017-12-14T18:48:23.850Z,71
2017-12-14T18:49:24.555Z,70
2017-12-14T18:50:25.260Z,70
2017-12-14T18:51:25.965Z,70
2017-12-14T18:52:26.684Z,67
2017-12-14T18:53:27.387Z,73
2017-12-14T18:54:28.089Z,71
2017-12-14T18:55:28.791Z,70
2017-12-14T18:56:29.495Z,71
2017-12-14T18:57:30.211Z,69
2017-12-14T18:58:30.916Z,70
2017-12-14T18:59:31.619Z,71
2017-12-14T19:00:32.337Z,72
2017-12-14T19:01:33.041Z,73
2017-12-14T19:02:33.745Z,71
2017-12-14T19:03:34.463Z,70
2017-12-14T19:04:35.171Z,73
2017-12-14T19:05:35.873Z,73
2017-12-14T19:06:36.580Z,74
2017-12-14T19:07:37.296Z,72
2017-12-14T19:08:38.000Z,70
2017-12-14T19:09:38.704Z,69
2017-12-14T19:10:39.406Z,69
2017-12-14T19:11:40.110Z,69
2017-12-14T19:12:40.813Z,70
2017-12-14T19:13:41.518Z,72
2017-12-14T19:14:42.221Z,72
2017-12-14T19:15:42.939Z,73
2017-12-14T19:16:43.642Z,72
2017-12-14T19:17:44.359Z,74
2017-12-14T19:18:45.082Z,73
2017-12-14T19:19:45.786Z,73
2017-12-14T19:20:46.489Z,73
2017-12-14T19:21:47.194Z,73
2017-12-14T19:22:47.913Z,72
2017-12-14T19:23:48.616Z,71
2017-12-14T19:24:49.319Z,71
2017-12-14T19:25:50.024Z,71
2017-12-14T19:26:50.728Z,72
2017-12-14T19:27:51.430Z,72
2017-12-14T19:28:52.134Z,72
2017-12-14T19:29:52.849Z,72
2017-12-14T19:30:53.554Z,71
2017-12-14T19:31:54.262Z,71
2017-12-14T19:32:54.963Z,72
2017-12-14T19:33:55.667Z,72
2017-12-14T19:34:56.371Z,73
2017-12-14T19:35:57.091Z,74
2017-12-14T19:36:57.809Z,75
2017-12-14T19:37:58.511Z,75
2017-12-14T19:38:59.218Z,75
2017-12-14T19:39:59.935Z,75
2017-12-14T19:41:00.637Z,76
2017-12-14T19:42:01.342Z,78
2017-12-14T19:43:02.044Z,80
2017-12-14T19:44:02.745Z,76
2017-12-14T19:45:03.450Z,77
2017-12-14T19:46:04.161Z,76
2017-12-14T19:47:04.887Z,75
2017-12-14T19:48:05.593Z,75
2017-12-14T19:49:06.358Z,76
2017-12-14T19:50:07.090Z,79
2017-12-14T19:51:07.792Z,78
2017-12-14T19:52:08.569Z,79
2017-12-14T19:53:09.272Z,78
2017-12-14T19:54:09.976Z,79
2017-12-14T19:55:10.681Z,79
2017-12-14T19:56:11.397Z,78
2017-12-14T19:57:12.114Z,78
2017-12-14T19:58:12.821Z,79
2017-12-14T19:59:13.528Z,77
2017-12-14T20:00:14.230Z,76
2017-12-14T20:01:14.991Z,76
2017-12-14T20:02:15.758Z,77
2017-12-14T20:03:16.462Z,78
2017-12-14T20:04:17.165Z,78
2017-12-14T20:05:17.868Z,76
2017-12-14T20:06:18.572Z,77
2017-12-14T20:07:19.290Z,78
2017-12-14T20:08:19.998Z,78
2017-12-14T20:09:20.702Z,80
2017-12-14T20:10:21.406Z,80
2017-12-14T20:11:22.121Z,82
2017-12-14T20:12:22.824Z,83
2017-12-14T20:13:23.527Z,81
2017-12-14T20:14:24.279Z,81
2017-12-14T20:15:24.994Z,81
2017-12-14T20:16:25.696Z,81
2017-12-14T20:17:26.401Z,82
2017-12-14T20:18:27.104Z,81
2017-12-14T20:19:27.821Z,81
2017-12-14T20:20:28.540Z,80
2017-12-14T20:21:29.244Z,81
2017-12-14T20:22:29.948Z,82
2017-12-14T20:23:30.654Z,80
2017-12-14T20:24:31.360Z,83
2017-12-14T20:25:32.065Z,82
2017-12-14T20:26:32.808Z,84
2017-12-14T20:27:33.513Z,85
2017-12-14T20:28:34.220Z,84
2017-12-14T20:29:34.924Z,85
2017-12-14T20:30:35.628Z,87
2017-12-14T20:31:36.334Z,86
2017-12-14T20:32:37.040Z,87
2017-12-14T20:33:37.746Z,86
2017-12-14T20:34:38.461Z,88
2017-12-14T20:35:39.163Z,89
2017-12-14T20:36:39.883Z,90
2017-12-14T20:37:40.627Z,92
2017-12-14T20:38:41.340Z,93
2017-12-14T20:39:42.092Z,93
2017-12-14T20:40:42.797Z,94
2017-12-14T20:41:43.534Z,95
2017-12-14T20:42:44.233Z,98
2017-12-14T20:43:44.969Z,98
2017-12-14T20:44:45.684Z,99
2017-12-14T20:45:46.389Z,100
2017-12-14T20:46:47.130Z,100
2017-12-14T20:47:47.846Z,100
2017-12-14T20:48:48.563Z,100
2017-12-14T20:49:49.267Z,100
2017-12-14T20:50:49.973Z,100
2017-12-14T20:51:50.678Z,100
2017-12-14T20:52:51.417Z,100
2017-12-14T20:53:52.120Z,100
2017-12-14T20:54:52.825Z,100
2017-12-14T20:55:53.533Z,100
2017-12-14T20:56:54.240Z,100
2017-12-14T20:57:54.945Z,100
2017-12-14T20:58:55.665Z,100
2017-12-14T20:59:56.372Z,100
2017-12-14T21:00:57.082Z,100
2017-12-14T21:01:57.830Z,100
2017-12-14T21:02:58.534Z,100
2017-12-14T21:03:59.239Z,100
2017-12-14T21:04:59.944Z,100
2017-12-14T21:06:00.647Z,100
2017-12-14T21:07:01.352Z,100
2017-12-14T21:08:02.113Z,100
2017-12-14T21:09:02.861Z,100
2017-12-14T21:10:03.583Z,100
2017-12-14T21:11:04.288Z,100
2017-12-14T21:12:04.993Z,100
2017-12-14T21:13:05.743Z,100
2017-12-14T21:14:06.462Z,100
2017-12-14T21:15:07.166Z,100
2017-12-14T21:16:07.872Z,100
2017-12-14T21:17:08.574Z,100
2017-12-14T21:18:09.279Z,100
2017-12-14T21:19:09.996Z,100
2017-12-14T21:20:10.769Z,100
2017-12-14T21:21:11.495Z,100
2017-12-14T21:22:12.199Z,100
2017-12-14T21:23:12.918Z,100
2017-12-14T21:24:13.624Z,100
2017-12-14T21:25:14.330Z,100
2017-12-14T21:26:15.036Z,100
2017-12-14T21:27:15.753Z,100
2017-12-14T21:28:16.457Z,100
2017-12-14T21:29:17.163Z,100
2017-12-14T21:30:17.865Z,100
2017-12-14T21:31:18.570Z,100
2017-12-14T21:32:19.273Z,100
2017-12-14T21:33:19.991Z,100
2017-12-14T21:34:20.696Z,100
2017-12-14T21:35:21.399Z,100
2017-12-14T21:36:22.120Z,100
2017-12-14T21:37:22.825Z,100
2017-12-14T21:38:23.543Z,100
2017-12-14T21:39:24.246Z,100
2017-12-14T21:40:24.964Z,100
2017-12-14T21:41:25.684Z,100
2017-12-14T21:42:26.392Z,100
2017-12-14T21:43:27.109Z,100
2017-12-14T21:44:27.815Z,100
2017-12-14T21:45:28.520Z,100
2017-12-14T21:46:29.225Z,100
2017-12-14T21:47:29.928Z,100
2017-12-14T21:48:30.632Z,100
2017-12-14T21:49:31.351Z,100
2017-12-14T21:50:32.057Z,100
2017-12-14T21:51:32.760Z,100
2017-12-14T21:52:33.466Z,100
2017-12-14T21:53:34.170Z,100
2017-12-14T21:54:34.874Z,100
2017-12-14T21:55:35.598Z,100
2017-12-14T21:56:36.300Z,100
2017-12-14T21:57:37.007Z,100
2017-12-14T21:58:37.714Z,100
2017-12-14T21:59:38.419Z,100
2017-12-14T22:00:39.125Z,100
2017-12-14T22:01:39.842Z,100
2017-12-14T22:02:40.561Z,100
2017-12-14T22:03:41.266Z,100
2017-12-14T22:04:41.986Z,100
2017-12-14T22:05:42.704Z,100
2017-12-14T22:06:43.411Z,100
2017-12-14T22:07:44.116Z,100
2017-12-14T22:08:44.819Z,100
2017-12-14T22:09:45.526Z,100
2017-12-14T22:10:46.230Z,100
2017-12-14T22:11:46.936Z,100
2017-12-14T22:12:47.654Z,100
2017-12-14T22:13:48.357Z,100
2017-12-14T22:14:49.063Z,100
2017-12-14T22:15:49.768Z,100
2017-12-14T22:16:50.472Z,100
2017-12-14T22:17:51.179Z,100
2017-12-14T22:18:51.885Z,100
2017-12-14T22:19:52.588Z,100
2017-12-14T22:20:53.307Z,100
2017-12-14T22:21:54.022Z,100
2017-12-14T22:22:54.719Z,100
2017-12-14T22:23:55.437Z,100
2017-12-14T22:24:56.155Z,100
2017-12-14T22:25:56.875Z,100
2017-12-14T22:26:57.579Z,100
2017-12-14T22:27:58.296Z,100
2017-12-14T22:28:59.003Z,100
2017-12-14T22:29:59.707Z,100
2017-12-14T22:31:00.426Z,100
2017-12-14T22:32:01.132Z,100
2017-12-14T22:33:01.837Z,100
2017-12-14T22:34:02.541Z,100
2017-12-14T22:35:03.247Z,100
2017-12-14T22:36:03.951Z,100
2017-12-14T22:37:04.670Z,100
2017-12-14T22:38:05.376Z,100
2017-12-14T22:39:06.081Z,100
2017-12-14T22:40:06.786Z,100
2017-12-14T22:41:07.492Z,100
2017-12-14T22:42:08.200Z,100
2017-12-14T22:43:08.920Z,100
2017-12-14T22:44:09.623Z,100
2017-12-14T22:45:10.330Z,100
2017-12-14T22:46:11.036Z,100
2017-12-14T22:47:11.742Z,100
2017-12-14T22:48:12.463Z,100
2017-12-14T22:49:13.171Z,100
2017-12-14T22:50:13.877Z,100
2017-12-14T22:51:14.583Z,100
2017-12-14T22:52:15.288Z,100
2017-12-14T22:53:15.993Z,100
2017-12-14T22:54:16.700Z,100
2017-12-14T22:55:17.418Z,100
2017-12-14T22:56:18.119Z,100
2017-12-14T22:57:18.836Z,100
2017-12-14T22:58:19.565Z,100
2017-12-14T22:59:20.263Z,100
2017-12-14T23:00:20.969Z,100
2017-12-14T23:01:21.675Z,100
2017-12-14T23:02:22.382Z,100
2017-12-14T23:03:23.087Z,100
2017-12-14T23:04:23.792Z,100
2017-12-14T23:05:24.497Z,100
2017-12-14T23:06:25.201Z,100
2017-12-14T23:07:25.919Z,100
2017-12-14T23:08:26.625Z,100
2017-12-14T23:09:27.331Z,100
2017-12-14T23:10:28.035Z,100
2017-12-14T23:11:28.741Z,100
2017-12-14T23:12:29.445Z,100
2017-12-14T23:13:30.152Z,100
2017-12-14T23:14:30.857Z,100
2017-12-14T23:15:31.562Z,100
2017-12-14T23:16:32.281Z,100
2017-12-14T23:17:33.002Z,100
2017-12-14T23:18:33.709Z,100
2017-12-14T23:19:34.413Z,100
2017-12-14T23:20:35.133Z,100
2017-12-14T23:21:35.838Z,100
2017-12-14T23:22:36.557Z,100
2017-12-14T23:23:37.263Z,100
2017-12-14T23:24:37.967Z,100
2017-12-14T23:25:38.685Z,100
2017-12-14T23:26:39.390Z,100
2017-12-14T23:27:40.093Z,100
2017-12-14T23:28:40.797Z,100
2017-12-14T23:29:41.502Z,100
2017-12-14T23:30:42.206Z,100
2017-12-14T23:31:42.909Z,100
2017-12-14T23:32:43.613Z,100
2017-12-14T23:33:44.320Z,100
2017-12-14T23:34:45.024Z,100
2017-12-14T23:35:45.740Z,100
2017-12-14T23:36:46.445Z,100
2017-12-14T23:37:47.150Z,100
2017-12-14T23:38:47.854Z,100
2017-12-14T23:39:48.562Z,100
2017-12-14T23:40:49.263Z,100
2017-12-14T23:41:49.976Z,100
2017-12-14T23:42:50.687Z,100
2017-12-14T23:43:51.406Z,100
2017-12-14T23:44:52.124Z,100
2017-12-14T23:45:52.828Z,100
2017-12-14T23:46:53.534Z,100
2017-12-14T23:47:54.238Z,100
2017-12-14T23:48:54.943Z,100
2017-12-14T23:49:55.647Z,100
2017-12-14T23:50:56.352Z,100
2017-12-14T23:51:57.057Z,100
2017-12-14T23:52:57.776Z,100
2017-12-14T23:53:58.496Z,100
2017-12-14T23:54:59.204Z,100
2017-12-14T23:55:59.916Z,100
2017-12-14T23:57:00.621Z,100
2017-12-14T23:58:01.339Z,100
2017-12-14T23:59:02.045Z,100
